KBLH

Details ICAO KBLH (BLH)
Name BLYTHE
Region United States
Timezone America/Los_Angeles (UTC-7.0)
Plans Departing 7
Arriving 14
Stats Elevation 399 ft / 122 m (AMSL)
Location 33.619318° -114.716882°
Runways 2
Magnetic Variation 11.068° E
Sunrise 2018-05-27 12:32:50 UTC / 2018-05-27 05:32:50 Local
Sunset 2018-05-28 02:42:10 UTC / 2018-05-27 19:42:10 Local
Advertisement - Login to hide

Runways

ID Width Length Bearing (true) Bearing (mag) Surface Threshold Offset Overrun Length
08 150 ft / 46 m 6,531 ft / 1,991 m 90.21° 79.14° Asphalt 0 ft / 0 m 769 ft / 234 m
17 100 ft / 30 m 5,816 ft / 1,773 m 180.22° 169.15° Asphalt 0 ft / 0 m 212 ft / 65 m
26 150 ft / 46 m 6,531 ft / 1,991 m 270.22° 259.15° Asphalt 0 ft / 0 m 424 ft / 129 m
35 100 ft / 30 m 5,816 ft / 1,773 m 0.22° 349.15° Asphalt 0 ft / 0 m 200 ft / 61 m

Map

Weather


0- 5 10 15 20 25 30 35+ Temperature / ° C

Clouds and Precipitation
Forecast for 2018-05-27 12:00 UTC. Updated an hour ago

Ground ~20,000 ft ~40,000 ft Winds

METAR

KBLH 271152Z AUTO 33006KT 10SM CLR 18/06 A2978 RMK AO2 SLP080 T01830061 10222 20172 53006

TAF

TAF KBLH 271120Z 2712/2812 VRB05KT P6SM SKC FM272000 19008KT P6SM SKC FM280300 24006KT P6SM SKC

Frequencies

Recorded 120.17 MHz ASOS
Unicom 122.80 MHz CTAF/UNICOM
Warning: Do not use this data for real-world aviation or navigation. No guarantee of current accuracy is given.